Manayunk, Pennsylvania
Current Conditions -  °F | °C
As of 4:15 PM on Tuesday 21 Oct 2014 (Local Time) from KLOM Reporting Station
Scattered Clouds Scattered Clouds  
Wind Chill: 68°   Ceiling: Unl
Heat Index: 68°   Visibility: 10mi
Dew Point: 50°   Wind: 3mph
Humidity: 52%   Direction: 260°W
Pressure: 29.8"   Gusts: NA
Location:  40.0277°N, 75.226°W
Report Text: KLOM 212015Z AUTO 26003KT 10SM SCT048 SCT060 SCT080 20/10 A2980 RMK AO1
Loading
Personal Weather Stations






























Interactive Weather Map
Tropical Storm Tracking
New forecast layout! Learn more

10-Day Weather Forecast

Advertisements
Track Severe Weather on mobile